Time;durP1;ratioP1;P1;durP2;ratioP2;P2;SDS_P1;SDS_P2;PMS_P1;PMS_P2;Temp;Humidity;BMP_temperature;BMP_pressure;BME280_temperature;BME280_humidity;BME280_pressure;Samples;Min_cycle;Max_cycle;Signal;HPM_P1;HPM_P2
2023/07/24 00:04:02;;;;;;;8.27;4.63;;;24.50;94.70;;;;;;10059694;28;20029;-73
2023/07/24 00:08:53;;;;;;;8.80;4.97;;;24.50;94.60;;;;;;10060317;28;20398;-72
2023/07/24 00:13:44;;;;;;;7.60;4.53;;;24.50;94.60;;;;;;10075474;28;20104;-73
2023/07/24 00:18:35;;;;;;;7.63;4.50;;;24.40;95.00;;;;;;10059352;28;20021;-73
2023/07/24 00:23:25;;;;;;;7.70;4.80;;;24.30;94.80;;;;;;10059194;28;20040;-73
2023/07/24 00:28:16;;;;;;;7.40;3.97;;;24.30;94.70;;;;;;10058411;28;20882;-73
2023/07/24 00:33:07;;;;;;;6.68;4.18;;;24.20;94.70;;;;;;10058867;28;20051;-73
2023/07/24 00:37:57;;;;;;;6.25;3.97;;;24.20;94.80;;;;;;10060804;28;20034;-73
2023/07/24 00:42:48;;;;;;;10.77;5.43;;;24.20;94.80;;;;;;10058976;28;20515;-73
2023/07/24 00:47:39;;;;;;;7.72;3.90;;;24.30;94.60;;;;;;10057684;28;20029;-73
2023/07/24 00:52:30;;;;;;;9.50;4.60;;;24.40;94.50;;;;;;10058672;28;20130;-74
2023/07/24 00:57:21;;;;;;;6.68;4.18;;;24.40;94.50;;;;;;10057427;28;20079;-74
2023/07/24 01:02:12;;;;;;;8.13;5.07;;;24.20;94.90;;;;;;10059219;28;20033;-72
2023/07/24 01:07:03;;;;;;;8.07;4.70;;;24.20;94.80;;;;;;10057553;28;20395;-74
2023/07/24 01:12:07;;;;;;;7.72;3.70;;;24.30;94.60;;;;;;10053468;28;20095;-74
2023/07/24 01:16:59;;;;;;;8.75;5.43;;;24.30;94.70;;;;;;10056074;28;20091;-75
2023/07/24 01:22:22;;;;;;;8.88;4.70;;;24.20;94.70;;;;;;10056990;28;20163;-74
2023/07/24 01:27:20;;;;;;;8.38;4.60;;;24.20;94.80;;;;;;10056512;28;20029;-74
2023/07/24 01:32:11;;;;;;;7.32;4.38;;;24.10;94.90;;;;;;10062654;28;20121;-75
2023/07/24 01:37:02;;;;;;;6.07;3.40;;;24.00;95.10;;;;;;10055281;28;20124;-75
2023/07/24 01:41:52;;;;;;;8.70;3.85;;;23.90;95.30;;;;;;10056883;28;20033;-74
2023/07/24 01:46:43;;;;;;;5.65;3.50;;;23.90;95.50;;;;;;10056206;28;20130;-73
2023/07/24 01:51:34;;;;;;;7.47;3.75;;;23.80;95.60;;;;;;10056296;28;20519;-75
2023/07/24 01:56:24;;;;;;;6.88;3.92;;;23.80;95.70;;;;;;10055863;28;20034;-75
2023/07/24 02:01:15;;;;;;;6.47;4.20;;;23.80;95.70;;;;;;10059631;28;20438;-76
2023/07/24 02:06:05;;;;;;;8.82;4.53;;;23.80;95.90;;;;;;10056204;28;20034;-76
2023/07/24 02:10:56;;;;;;;9.05;4.28;;;23.70;96.00;;;;;;10054780;28;20034;-76
2023/07/24 02:15:47;;;;;;;7.05;4.18;;;23.60;96.10;;;;;;10055778;28;20507;-76
2023/07/24 02:20:37;;;;;;;6.65;4.13;;;23.80;96.20;;;;;;10054822;28;20021;-77
2023/07/24 02:25:28;;;;;;;6.70;3.97;;;23.80;96.10;;;;;;10054521;28;20036;-77
2023/07/24 02:30:19;;;;;;;10.90;5.50;;;23.80;96.30;;;;;;10054516;28;20379;-77
2023/07/24 02:35:09;;;;;;;8.73;4.15;;;23.80;96.50;;;;;;10055892;28;20108;-78
2023/07/24 02:40:00;;;;;;;5.57;3.92;;;23.90;96.70;;;;;;10065569;28;20288;-77
2023/07/24 02:44:52;;;;;;;9.48;4.65;;;23.70;97.10;;;;;;10071117;28;20029;-78
2023/07/24 02:49:43;;;;;;;7.50;4.22;;;23.60;97.40;;;;;;10071060;28;20499;-77
2023/07/24 02:54:33;;;;;;;9.63;4.40;;;23.50;97.70;;;;;;10059882;28;20059;-80
2023/07/24 02:59:24;;;;;;;7.50;3.85;;;23.40;98.10;;;;;;10061990;28;20028;-81
2023/07/24 03:04:15;;;;;;;7.07;4.10;;;23.40;98.30;;;;;;10061202;28;20033;-80
2023/07/24 03:09:05;;;;;;;8.15;3.88;;;23.40;98.60;;;;;;10058930;28;20033;-81
2023/07/24 03:13:56;;;;;;;8.80;4.70;;;23.30;98.90;;;;;;10062289;28;20064;-81
2023/07/24 03:18:47;;;;;;;7.57;3.95;;;23.30;99.00;;;;;;10062392;28;20037;-82
2023/07/24 03:23:37;;;;;;;8.35;3.97;;;23.20;99.30;;;;;;10062229;28;20083;-82
2023/07/24 03:28:28;;;;;;;8.15;4.40;;;23.30;99.40;;;;;;10072359;28;20618;-83
2023/07/24 03:33:19;;;;;;;11.00;4.68;;;23.20;99.70;;;;;;10071385;28;20037;-82
2023/07/24 03:38:10;;;;;;;9.05;4.22;;;23.20;99.90;;;;;;10072014;28;20132;-79
2023/07/24 03:43:00;;;;;;;11.27;3.97;;;23.10;99.90;;;;;;10067562;28;20033;-85
2023/07/24 03:47:51;;;;;;;7.32;4.07;;;23.20;99.90;;;;;;10065727;28;20083;-86
2023/07/24 03:52:42;;;;;;;8.00;3.92;;;23.20;99.90;;;;;;10062664;28;20045;-83
2023/07/24 03:57:32;;;;;;;6.82;4.18;;;23.30;99.90;;;;;;10061675;28;20033;-84
2023/07/24 04:02:23;;;;;;;8.20;3.97;;;23.40;99.80;;;;;;10061228;28;20030;-77
2023/07/24 04:07:14;;;;;;;10.07;3.60;;;23.50;99.60;;;;;;10075217;28;20033;-83
2023/07/24 04:12:05;;;;;;;5.18;3.72;;;23.50;99.50;;;;;;10062267;28;20403;-82
2023/07/24 04:16:56;;;;;;;8.15;3.50;;;23.50;99.30;;;;;;10060117;28;20029;-83
2023/07/24 04:21:46;;;;;;;6.22;3.95;;;23.60;99.60;;;;;;10064831;28;20418;-83
2023/07/24 04:26:37;;;;;;;7.15;4.07;;;23.60;99.10;;;;;;10066535;28;20033;-82
2023/07/24 04:31:28;;;;;;;7.53;3.92;;;23.30;99.50;;;;;;10059769;28;20049;-82
2023/07/24 04:36:18;;;;;;;8.15;4.03;;;23.20;99.80;;;;;;10059097;28;20083;-81
2023/07/24 04:41:09;;;;;;;9.82;4.28;;;23.40;99.40;;;;;;10074955;28;20033;-81
2023/07/24 04:45:59;;;;;;;7.65;4.00;;;23.60;99.00;;;;;;10062433;28;20029;-78
2023/07/24 04:50:54;;;;;;;5.47;3.58;;;23.50;99.00;;;;;;10061866;28;20238;-79
2023/07/24 04:55:46;;;;;;;8.70;4.72;;;23.40;99.10;;;;;;10058445;28;20025;-78
2023/07/24 05:00:37;;;;;;;8.13;4.55;;;23.50;99.00;;;;;;10065831;28;20064;-79
2023/07/24 05:05:27;;;;;;;8.13;4.20;;;23.40;98.90;;;;;;10057060;28;20028;-79
2023/07/24 05:10:18;;;;;;;8.52;3.97;;;23.30;99.20;;;;;;10055814;28;20036;-78
2023/07/24 05:15:09;;;;;;;9.07;4.45;;;23.20;99.40;;;;;;10057553;28;20520;-77
2023/07/24 05:19:59;;;;;;;7.65;3.97;;;23.20;99.50;;;;;;10059916;28;20048;-77
2023/07/24 05:24:50;;;;;;;8.02;4.80;;;23.20;99.30;;;;;;10057735;28;20522;-77
2023/07/24 05:29:41;;;;;;;6.57;4.25;;;23.40;99.00;;;;;;10072102;28;20022;-77
2023/07/24 05:34:32;;;;;;;9.13;5.05;;;23.40;98.90;;;;;;10059518;28;20049;-77
2023/07/24 05:39:22;;;;;;;7.50;3.83;;;23.50;98.70;;;;;;10056309;28;20051;-77
2023/07/24 05:44:13;;;;;;;8.32;4.35;;;23.40;98.80;;;;;;10056656;28;20030;-76
2023/07/24 05:49:04;;;;;;;8.10;4.65;;;23.50;98.50;;;;;;10062238;28;20029;-76
2023/07/24 05:53:54;;;;;;;7.90;3.85;;;23.50;98.50;;;;;;10056580;28;20063;-77
2023/07/24 05:58:45;;;;;;;6.53;4.18;;;23.50;98.40;;;;;;10059562;28;20033;-75
2023/07/24 06:03:36;;;;;;;8.65;3.88;;;23.40;98.50;;;;;;10055413;28;20040;-75
2023/07/24 06:08:29;;;;;;;8.02;4.30;;;23.50;98.30;;;;;;10057185;28;20547;-75
2023/07/24 06:13:20;;;;;;;8.32;4.10;;;23.40;98.40;;;;;;10060089;28;20081;-75
2023/07/24 06:18:11;;;;;;;8.30;4.32;;;23.50;98.40;;;;;;10057811;28;20447;-77
2023/07/24 06:23:03;;;;;;;5.43;3.72;;;23.40;98.50;;;;;;10054644;28;20033;-74
2023/07/24 06:27:54;;;;;;;9.50;4.45;;;23.60;98.40;;;;;;10057581;28;20029;-74
2023/07/24 06:32:45;;;;;;;7.50;4.22;;;23.50;98.30;;;;;;10063476;28;20101;-70
2023/07/24 06:37:35;;;;;;;9.43;4.53;;;23.50;98.30;;;;;;10062913;28;20422;-72
2023/07/24 06:42:26;;;;;;;11.07;4.75;;;23.30;98.40;;;;;;10063088;28;20083;-71
2023/07/24 06:47:17;;;;;;;8.63;4.80;;;23.20;98.70;;;;;;10063494;28;20464;-73
2023/07/24 06:52:07;;;;;;;8.45;4.28;;;23.20;98.70;;;;;;10062436;28;20049;-80
2023/07/24 06:56:58;;;;;;;11.07;5.50;;;23.20;98.80;;;;;;10078313;28;20026;-74
2023/07/24 07:01:49;;;;;;;11.88;5.32;;;23.10;99.00;;;;;;10062730;28;20036;-74
2023/07/24 07:06:39;;;;;;;7.47;4.68;;;23.00;99.10;;;;;;10061365;28;20370;-72
2023/07/24 07:11:30;;;;;;;7.65;4.18;;;22.80;99.60;;;;;;10060997;28;20041;-78
2023/07/24 07:16:21;;;;;;;8.05;4.43;;;22.80;99.80;;;;;;10061714;28;20026;-72
2023/07/24 07:21:11;;;;;;;8.93;4.13;;;22.80;99.90;;;;;;10061819;28;20744;-70
2023/07/24 07:26:02;;;;;;;7.90;4.05;;;22.90;99.90;;;;;;10064190;28;20021;-71
2023/07/24 07:30:53;;;;;;;7.78;5.40;;;22.80;99.90;;;;;;10061479;28;20045;-75
2023/07/24 07:35:44;;;;;;;5.72;3.92;;;22.90;99.90;;;;;;10059917;28;20030;-71
2023/07/24 07:40:38;;;;;;;6.00;3.70;;;22.80;99.90;;;;;;10059611;28;20034;-71
2023/07/24 07:45:29;;;;;;;7.78;4.40;;;22.80;99.90;;;;;;10061016;28;20471;-70
2023/07/24 07:50:19;;;;;;;6.65;3.67;;;22.80;99.90;;;;;;10060451;28;20049;-71
2023/07/24 07:55:11;;;;;;;9.32;4.15;;;22.90;99.90;;;;;;10060519;28;20026;-71
2023/07/24 08:00:08;;;;;;;6.57;3.70;;;22.80;99.90;;;;;;10059684;28;20034;-72
2023/07/24 08:04:58;;;;;;;6.53;4.32;;;22.90;99.90;;;;;;10060345;28;20079;-72
2023/07/24 08:09:49;;;;;;;8.00;4.45;;;23.00;99.90;;;;;;10050944;28;20203;-72
2023/07/24 08:14:40;;;;;;;11.57;4.32;;;23.00;99.90;;;;;;10059724;28;20049;-72
2023/07/24 08:19:31;;;;;;;5.78;3.53;;;23.10;99.90;;;;;;10059821;28;20044;-72
2023/07/24 08:24:21;;;;;;;8.02;3.85;;;23.20;99.90;;;;;;10061717;28;20116;-72
2023/07/24 08:29:12;;;;;;;6.00;3.85;;;23.30;99.90;;;;;;10074237;28;20442;-75
2023/07/24 08:34:03;;;;;;;7.97;3.97;;;23.30;99.90;;;;;;10059201;28;20196;-74
2023/07/24 08:38:54;;;;;;;7.32;4.32;;;23.30;99.90;;;;;;10058219;28;20040;-74
2023/07/24 08:43:44;;;;;;;7.38;4.22;;;23.30;99.90;;;;;;10062447;28;20031;-72
2023/07/24 08:48:41;;;;;;;9.57;4.40;;;23.30;99.90;;;;;;10058224;28;20045;-78
2023/07/24 08:53:37;;;;;;;10.80;5.50;;;23.30;99.90;;;;;;10063799;28;20037;-71
2023/07/24 08:58:27;;;;;;;5.15;3.78;;;23.20;99.90;;;;;;10057502;28;20032;-72
2023/07/24 09:03:19;;;;;;;7.35;4.38;;;23.30;99.90;;;;;;10059012;28;20032;-72
2023/07/24 09:08:10;;;;;;;8.23;3.72;;;23.30;99.90;;;;;;10057375;28;20032;-71
2023/07/24 09:13:03;;;;;;;8.65;5.03;;;23.30;99.90;;;;;;10056987;28;20041;-72
2023/07/24 09:17:54;;;;;;;7.68;4.18;;;23.30;99.90;;;;;;10056358;28;20022;-72
2023/07/24 09:22:53;;;;;;;10.15;5.53;;;23.30;99.90;;;;;;10057260;28;20526;-74
2023/07/24 09:27:44;;;;;;;6.40;3.25;;;23.30;99.90;;;;;;10072090;28;20025;-72
2023/07/24 09:32:35;;;;;;;7.85;4.18;;;23.20;99.90;;;;;;10056641;28;20079;-72
2023/07/24 09:37:33;;;;;;;6.45;3.78;;;23.10;99.90;;;;;;10072502;28;20032;-75
2023/07/24 09:42:34;;;;;;;7.60;4.13;;;23.20;99.90;;;;;;10057788;28;20039;-71
2023/07/24 09:47:25;;;;;;;8.63;4.25;;;23.20;99.90;;;;;;10056003;28;20021;-74
2023/07/24 09:52:18;;;;;;;8.77;4.20;;;23.10;99.90;;;;;;10054121;28;20542;-74
2023/07/24 09:57:09;;;;;;;9.48;4.25;;;23.10;99.90;;;;;;10057391;28;20025;-71
2023/07/24 10:02:00;;;;;;;7.80;4.10;;;23.00;99.90;;;;;;10066058;28;20036;-72
2023/07/24 10:06:51;;;;;;;7.22;3.70;;;22.90;99.90;;;;;;10065529;28;20026;-73
2023/07/24 10:11:42;;;;;;;6.97;3.35;;;22.80;99.90;;;;;;10064395;28;20114;-74
2023/07/24 10:16:33;;;;;;;4.70;3.38;;;22.80;99.90;;;;;;10063797;28;20108;-77
2023/07/24 10:21:30;;;;;;;7.70;4.13;;;22.70;99.90;;;;;;10070054;28;20029;-79
2023/07/24 10:26:27;;;;;;;5.95;3.33;;;22.70;99.90;;;;;;10062014;28;20033;-75
2023/07/24 10:31:30;;;;;;;5.05;3.35;;;22.70;99.90;;;;;;10067158;28;20503;-72
2023/07/24 10:36:22;;;;;;;5.70;3.17;;;22.70;99.90;;;;;;10063000;28;20500;-71
2023/07/24 10:41:13;;;;;;;8.00;3.85;;;22.80;99.90;;;;;;10064263;28;20124;-72
2023/07/24 10:46:04;;;;;;;5.70;3.05;;;22.70;99.90;;;;;;10079938;28;20518;-72
2023/07/24 10:50:55;;;;;;;6.88;3.38;;;22.50;99.90;;;;;;10068831;28;20140;-74
2023/07/24 10:55:47;;;;;;;6.10;2.88;;;22.50;99.90;;;;;;10064452;28;20034;-72
2023/07/24 11:00:41;;;;;;;6.20;3.15;;;22.40;99.90;;;;;;10060776;28;20033;-72
2023/07/24 11:05:32;;;;;;;6.65;3.33;;;22.50;99.90;;;;;;10063004;28;20029;-72
2023/07/24 11:10:23;;;;;;;4.53;3.05;;;22.50;99.90;;;;;;10057761;28;20095;-72
2023/07/24 11:15:14;;;;;;;5.78;4.07;;;22.50;99.90;;;;;;10061906;28;20017;-72
2023/07/24 11:20:09;;;;;;;7.50;4.30;;;22.50;99.90;;;;;;10062080;28;20514;-75
2023/07/24 11:25:01;;;;;;;5.70;3.35;;;22.50;99.90;;;;;;10067990;28;20116;-73
2023/07/24 11:29:52;;;;;;;5.57;3.25;;;22.50;99.90;;;;;;10078988;28;20021;-68
2023/07/24 11:34:42;;;;;;;6.75;3.80;;;22.50;99.90;;;;;;10061525;28;20120;-73
2023/07/24 11:39:33;;;;;;;6.03;3.25;;;22.40;99.90;;;;;;10061924;28;20556;-72
2023/07/24 11:44:29;;;;;;;7.13;3.72;;;22.40;99.90;;;;;;10061068;28;20026;-70
2023/07/24 11:49:20;;;;;;;9.18;4.03;;;22.40;99.90;;;;;;10060466;28;20033;-71
2023/07/24 11:54:11;;;;;;;5.50;3.17;;;22.40;99.90;;;;;;10058493;28;20096;-70
2023/07/24 11:59:13;;;;;;;4.30;3.22;;;22.20;99.90;;;;;;10060691;28;20476;-68
2023/07/24 12:04:04;;;;;;;6.32;2.97;;;22.20;99.90;;;;;;10059725;28;20464;-69
2023/07/24 12:09:03;;;;;;;6.05;3.10;;;22.40;99.90;;;;;;10066788;28;20358;-69
2023/07/24 12:13:53;;;;;;;5.22;2.33;;;22.30;99.90;;;;;;10062111;28;20125;-70
2023/07/24 12:18:44;;;;;;;5.20;2.78;;;22.30;99.90;;;;;;10062859;28;20113;-69
2023/07/24 12:23:34;;;;;;;7.53;2.83;;;22.40;99.90;;;;;;10059360;28;20397;-69
2023/07/24 12:28:25;;;;;;;5.20;3.13;;;22.50;99.90;;;;;;10058385;28;20034;-70
2023/07/24 12:33:16;;;;;;;6.47;3.33;;;22.50;99.90;;;;;;10058840;28;20411;-70
2023/07/24 12:38:07;;;;;;;6.53;3.35;;;22.40;99.90;;;;;;10058844;28;20037;-70
2023/07/24 12:42:57;;;;;;;6.82;3.38;;;22.50;99.90;;;;;;10059140;28;20119;-69
2023/07/24 12:47:48;;;;;;;6.43;3.08;;;22.60;99.90;;;;;;10058347;28;20032;-70
2023/07/24 12:52:38;;;;;;;5.53;3.03;;;22.70;99.90;;;;;;10072967;28;20295;-70
2023/07/24 12:57:29;;;;;;;5.57;2.50;;;22.90;99.90;;;;;;10057900;28;20437;-72
2023/07/24 13:02:20;;;;;;;5.95;3.08;;;23.00;99.90;;;;;;10057905;28;20037;-72
2023/07/24 13:07:11;;;;;;;5.75;3.05;;;23.10;99.90;;;;;;10059457;28;20030;-71
2023/07/24 13:12:01;;;;;;;5.22;3.20;;;23.10;99.90;;;;;;10061213;28;20038;-72
2023/07/24 13:16:52;;;;;;;6.55;3.30;;;23.20;99.90;;;;;;10056814;28;20033;-71
2023/07/24 13:21:43;;;;;;;6.18;3.63;;;23.30;99.90;;;;;;10058024;28;20191;-73
2023/07/24 13:26:34;;;;;;;6.15;3.15;;;23.50;99.90;;;;;;10056989;28;20029;-72
2023/07/24 13:31:24;;;;;;;5.35;4.22;;;23.50;99.90;;;;;;10062279;28;20076;-72
2023/07/24 13:36:15;;;;;;;4.78;3.00;;;23.50;99.90;;;;;;10056041;28;20033;-74
2023/07/24 13:41:06;;;;;;;8.25;4.22;;;23.60;99.90;;;;;;10057106;28;20084;-75
2023/07/24 13:45:57;;;;;;;5.18;3.15;;;23.80;99.90;;;;;;10056602;28;20427;-71
2023/07/24 13:50:47;;;;;;;7.63;3.35;;;24.00;99.90;;;;;;10071549;28;20474;-71
2023/07/24 13:55:38;;;;;;;4.32;2.45;;;24.00;99.90;;;;;;10059972;28;20045;-73
2023/07/24 14:00:29;;;;;;;5.80;3.22;;;24.00;99.90;;;;;;10057220;28;20243;-71
2023/07/24 14:05:19;;;;;;;4.25;2.55;;;24.20;99.90;;;;;;10055080;28;20041;-71
2023/07/24 14:10:10;;;;;;;4.47;2.60;;;24.70;99.90;;;;;;10056272;28;20056;-72
2023/07/24 14:15:01;;;;;;;4.40;2.70;;;24.90;99.90;;;;;;10057888;28;20040;-73
2023/07/24 14:19:52;;;;;;;4.45;3.03;;;25.20;99.90;;;;;;10056332;28;20052;-70
2023/07/24 14:24:42;;;;;;;5.43;2.88;;;25.50;99.90;;;;;;10056460;28;20026;-71
2023/07/24 14:29:33;;;;;;;4.28;2.58;;;25.20;99.90;;;;;;10070866;28;20424;-73
2023/07/24 14:34:24;;;;;;;4.63;2.83;;;24.80;99.90;;;;;;10055875;28;20029;-70
2023/07/24 14:39:14;;;;;;;5.32;2.85;;;24.50;99.90;;;;;;10056638;28;20106;-68
2023/07/24 14:44:05;;;;;;;4.72;2.53;;;24.40;99.90;;;;;;10055864;28;20030;-70
2023/07/24 14:48:55;;;;;;;4.82;2.88;;;24.30;99.90;;;;;;10059386;28;20025;-70
2023/07/24 14:53:46;;;;;;;5.43;2.85;;;24.20;99.90;;;;;;10064053;28;20081;-71
2023/07/24 14:58:37;;;;;;;5.97;2.88;;;24.30;99.90;;;;;;10066040;28;20034;-70
2023/07/24 15:03:27;;;;;;;5.35;2.75;;;24.20;99.90;;;;;;10063753;28;20039;-73
2023/07/24 15:08:18;;;;;;;3.13;1.65;;;24.20;99.90;;;;;;10066364;28;20117;-72
2023/07/24 15:13:10;;;;;;;3.45;1.80;;;24.10;99.90;;;;;;10064196;28;20136;-73
2023/07/24 15:18:01;;;;;;;3.00;1.25;;;23.80;99.90;;;;;;10062122;28;20025;-73
2023/07/24 15:22:54;;;;;;;6.20;2.20;;;23.40;99.90;;;;;;10065845;28;20028;-69
2023/07/24 15:27:44;;;;;;;2.00;1.45;;;22.10;99.90;;;;;;10063359;28;20423;-64
2023/07/24 15:32:35;;;;;;;2.30;1.23;;;21.30;99.90;;;;;;10070584;28;20045;-64
2023/07/24 15:37:26;;;;;;;1.95;1.58;;;21.70;99.90;;;;;;10070669;28;20293;-65
2023/07/24 15:42:16;;;;;;;2.33;1.45;;;22.40;99.90;;;;;;10071019;28;20033;-66
2023/07/24 15:47:07;;;;;;;3.33;1.85;;;23.20;99.90;;;;;;10060601;28;20376;-66
2023/07/24 15:51:57;;;;;;;2.75;1.88;;;23.80;99.90;;;;;;10076011;28;20049;-66
2023/07/24 15:56:48;;;;;;;3.20;2.22;;;24.40;99.90;;;;;;10052696;28;20030;-65
2023/07/24 16:01:39;;;;;;;2.70;2.10;;;24.60;99.90;;;;;;10059168;28;20041;-65
2023/07/24 16:06:29;;;;;;;3.88;2.30;;;24.80;99.90;;;;;;10059598;28;20029;-65
2023/07/24 16:11:20;;;;;;;2.63;1.80;;;25.20;99.90;;;;;;10068834;28;20418;-67
2023/07/24 16:16:11;;;;;;;4.10;2.45;;;25.20;99.90;;;;;;10060185;28;20583;-66
2023/07/24 16:21:02;;;;;;;3.88;2.08;;;25.70;99.90;;;;;;10063262;28;20391;-66
2023/07/24 16:25:53;;;;;;;2.63;1.60;;;25.80;99.90;;;;;;10059319;28;20033;-66
2023/07/24 16:30:43;;;;;;;2.75;1.30;;;26.10;99.90;;;;;;10060092;28;20033;-68
2023/07/24 16:35:34;;;;;;;1.85;1.25;;;26.10;99.90;;;;;;10057526;28;20211;-66
2023/07/24 16:40:26;;;;;;;1.63;1.30;;;26.40;99.90;;;;;;10059159;28;20041;-67
2023/07/24 16:45:17;;;;;;;1.65;1.15;;;26.50;99.90;;;;;;10058617;28;20037;-67
2023/07/24 16:50:08;;;;;;;3.00;1.45;;;26.50;99.90;;;;;;10074360;28;20546;-67
2023/07/24 16:54:58;;;;;;;2.90;1.20;;;26.90;99.90;;;;;;10057944;28;20025;-67
2023/07/24 16:59:49;;;;;;;1.90;1.15;;;26.90;99.90;;;;;;10057653;28;20120;-67
2023/07/24 17:04:40;;;;;;;1.70;1.00;;;26.80;99.90;;;;;;10060526;28;20030;-67
2023/07/24 17:09:30;;;;;;;1.73;1.42;;;26.80;99.90;;;;;;10063342;28;20040;-66
2023/07/24 17:14:21;;;;;;;2.88;1.02;;;26.70;99.90;;;;;;10058432;28;20033;-66
2023/07/24 17:19:12;;;;;;;1.40;1.10;;;26.60;99.90;;;;;;10062334;28;20733;-66
2023/07/24 17:24:03;;;;;;;2.38;1.40;;;26.80;99.90;;;;;;10057439;28;20411;-67
2023/07/24 17:28:54;;;;;;;4.18;1.60;;;26.90;99.90;;;;;;10056878;28;20036;-67
2023/07/24 17:33:44;;;;;;;2.70;1.80;;;27.20;99.90;;;;;;10061559;28;20179;-66
2023/07/24 17:38:35;;;;;;;1.38;1.05;;;26.70;99.90;;;;;;10054891;28;20128;-66
2023/07/24 17:43:26;;;;;;;2.20;1.10;;;26.70;99.90;;;;;;10057519;28;20029;-66
2023/07/24 17:48:17;;;;;;;1.95;1.20;;;26.70;99.90;;;;;;10054387;28;20034;-67
2023/07/24 17:53:07;;;;;;;2.92;1.20;;;26.80;99.90;;;;;;10052297;28;20057;-68
2023/07/24 17:57:58;;;;;;;1.85;1.40;;;26.70;99.90;;;;;;10054435;28;20321;-67
2023/07/24 18:02:49;;;;;;;3.00;1.15;;;26.40;99.90;;;;;;10055646;28;20029;-67
2023/07/24 18:07:40;;;;;;;2.13;1.40;;;25.90;99.90;;;;;;10067450;28;20028;-67
2023/07/24 18:12:30;;;;;;;1.80;1.05;;;25.70;99.90;;;;;;10059117;28;20135;-67
2023/07/24 18:17:21;;;;;;;2.60;1.38;;;25.50;99.90;;;;;;10055863;28;20033;-66
2023/07/24 18:22:12;;;;;;;2.20;1.25;;;25.30;99.90;;;;;;10056203;28;20033;-67
2023/07/24 18:27:03;;;;;;;4.13;1.55;;;25.30;99.90;;;;;;10063273;28;20029;-67
2023/07/24 18:31:54;;;;;;;1.85;1.42;;;25.50;99.90;;;;;;10063693;28;20052;-66
2023/07/24 18:36:45;;;;;;;2.70;1.20;;;25.40;99.90;;;;;;10063191;28;20064;-68
2023/07/24 18:41:36;;;;;;;5.40;1.75;;;25.40;99.90;;;;;;10063550;28;20083;-67
2023/07/24 18:46:26;;;;;;;2.10;1.15;;;25.40;99.90;;;;;;10062832;28;20481;-66
2023/07/24 18:51:17;;;;;;;2.47;1.75;;;25.40;99.90;;;;;;10063650;28;20051;-66
2023/07/24 18:56:08;;;;;;;2.72;1.45;;;25.40;99.90;;;;;;10062066;28;20041;-66
2023/07/24 19:00:58;;;;;;;1.98;1.25;;;25.40;99.90;;;;;;10062420;28;20025;-66
2023/07/24 19:05:49;;;;;;;3.63;1.80;;;25.30;99.90;;;;;;10063971;28;20033;-67
2023/07/24 19:10:39;;;;;;;5.18;2.17;;;25.40;99.90;;;;;;10059352;28;20037;-69
2023/07/24 19:15:31;;;;;;;2.63;1.63;;;25.40;99.90;;;;;;10062440;28;20095;-66
2023/07/24 19:20:21;;;;;;;2.72;1.75;;;25.30;99.90;;;;;;10061501;28;20018;-68
2023/07/24 19:25:15;;;;;;;2.88;1.45;;;25.40;99.90;;;;;;10060962;28;20464;-68
2023/07/24 19:30:07;;;;;;;3.28;1.65;;;25.20;99.90;;;;;;10077427;28;20030;-69
2023/07/24 19:34:59;;;;;;;3.22;1.65;;;25.10;99.90;;;;;;10060516;28;20045;-69
2023/07/24 19:39:50;;;;;;;2.55;1.70;;;24.90;99.90;;;;;;10067631;28;20029;-69
2023/07/24 19:44:41;;;;;;;4.95;1.58;;;24.80;99.90;;;;;;10043714;28;20025;-71
2023/07/24 19:49:34;;;;;;;3.47;1.55;;;25.00;99.90;;;;;;10060674;28;20132;-69
2023/07/24 19:54:28;;;;;;;3.63;2.78;;;24.90;99.90;;;;;;10061944;28;20045;-70
2023/07/24 19:59:21;;;;;;;2.13;1.80;;;24.80;99.90;;;;;;10062299;28;20388;-71
2023/07/24 20:04:12;;;;;;;2.75;1.90;;;24.70;99.90;;;;;;10058751;28;20160;-68
2023/07/24 20:09:09;;;;;;;2.53;1.50;;;24.60;99.90;;;;;;10063901;28;20172;-67
2023/07/24 20:13:59;;;;;;;3.53;2.42;;;24.60;99.90;;;;;;10061108;28;20234;-68
2023/07/24 20:18:53;;;;;;;4.80;1.90;;;24.50;99.90;;;;;;10060940;28;20234;-68
2023/07/24 20:23:46;;;;;;;2.53;1.83;;;24.50;99.90;;;;;;10060002;28;20033;-68
2023/07/24 20:28:37;;;;;;;3.75;1.80;;;24.40;99.90;;;;;;10073997;28;20036;-69
2023/07/24 20:33:28;;;;;;;2.13;1.75;;;24.30;99.90;;;;;;10061440;28;20117;-69
2023/07/24 20:38:25;;;;;;;2.58;1.73;;;24.20;99.90;;;;;;10057105;28;20029;-68
2023/07/24 20:43:16;;;;;;;3.00;1.80;;;24.10;99.90;;;;;;10057603;28;20097;-68
2023/07/24 20:48:06;;;;;;;3.78;2.22;;;24.20;99.90;;;;;;10057687;28;20124;-69
2023/07/24 20:52:58;;;;;;;3.78;2.30;;;24.10;99.90;;;;;;10058377;28;20414;-68
2023/07/24 20:57:48;;;;;;;2.90;2.05;;;24.00;99.90;;;;;;10057576;28;20061;-69
2023/07/24 21:02:39;;;;;;;3.05;2.10;;;23.90;99.90;;;;;;10062907;28;20491;-69
2023/07/24 21:07:30;;;;;;;4.15;2.40;;;24.00;99.90;;;;;;10062226;28;20032;-69
2023/07/24 21:12:20;;;;;;;2.47;1.80;;;24.00;99.90;;;;;;10075460;28;20056;-68
2023/07/24 21:17:12;;;;;;;4.05;1.90;;;23.90;99.90;;;;;;10057557;28;20079;-69
2023/07/24 21:22:03;;;;;;;3.03;1.90;;;23.90;99.90;;;;;;10057325;28;20038;-68
2023/07/24 21:26:53;;;;;;;2.25;1.50;;;23.80;99.90;;;;;;10057000;28;20026;-69
2023/07/24 21:31:44;;;;;;;2.70;1.67;;;23.90;99.90;;;;;;10057068;28;20052;-69
2023/07/24 21:36:34;;;;;;;3.25;1.58;;;23.80;99.90;;;;;;10056326;28;20018;-68
2023/07/24 21:41:27;;;;;;;3.45;1.85;;;23.70;99.90;;;;;;10056404;28;20448;-68
2023/07/24 21:46:18;;;;;;;4.03;2.67;;;23.50;99.90;;;;;;10081840;28;20076;-68
2023/07/24 21:51:08;;;;;;;2.92;2.05;;;23.50;99.90;;;;;;10055751;28;20060;-69
2023/07/24 21:56:00;;;;;;;3.67;1.70;;;23.60;99.90;;;;;;10056140;28;20032;-69
2023/07/24 22:00:51;;;;;;;4.65;1.60;;;23.60;99.90;;;;;;10054864;28;20025;-68
2023/07/24 22:05:42;;;;;;;3.30;1.75;;;23.40;99.90;;;;;;10056600;28;20395;-68
2023/07/24 22:10:32;;;;;;;3.88;1.88;;;23.30;99.90;;;;;;10063407;28;20131;-69
2023/07/24 22:15:23;;;;;;;3.25;1.90;;;23.10;99.90;;;;;;10056922;28;20550;-70
2023/07/24 22:20:14;;;;;;;3.97;2.50;;;23.10;99.90;;;;;;10056346;28;20026;-70
2023/07/24 22:25:05;;;;;;;2.50;1.55;;;23.20;99.90;;;;;;10060000;28;20082;-69
2023/07/24 22:29:57;;;;;;;5.35;2.42;;;23.30;99.90;;;;;;10056066;28;20022;-69
2023/07/24 22:34:51;;;;;;;3.28;1.83;;;23.10;99.90;;;;;;10057458;28;20106;-68
2023/07/24 22:39:41;;;;;;;3.83;2.60;;;23.10;99.90;;;;;;10071009;28;20391;-69
2023/07/24 22:44:34;;;;;;;2.63;1.95;;;23.20;99.90;;;;;;10054998;28;20030;-68
2023/07/24 22:49:24;;;;;;;3.95;1.90;;;23.00;99.90;;;;;;10055700;28;20021;-69
2023/07/24 22:54:15;;;;;;;3.40;1.90;;;23.20;99.90;;;;;;10061971;28;20514;-69
2023/07/24 22:59:24;;;;;;;3.03;1.90;;;23.10;99.90;;;;;;10058158;28;20037;-69
2023/07/24 23:04:15;;;;;;;2.40;1.65;;;22.90;99.90;;;;;;10058099;28;20026;-69
2023/07/24 23:09:06;;;;;;;2.25;1.65;;;22.90;99.90;;;;;;10062322;28;20040;-70
2023/07/24 23:13:56;;;;;;;2.58;1.52;;;23.20;99.90;;;;;;10064135;28;20044;-69
2023/07/24 23:18:47;;;;;;;4.53;2.42;;;23.10;99.90;;;;;;10077651;28;20453;-67
2023/07/24 23:23:38;;;;;;;3.42;2.50;;;23.00;99.90;;;;;;10061934;28;20055;-69
2023/07/24 23:28:28;;;;;;;2.97;1.95;;;22.80;99.90;;;;;;10061695;28;20285;-68
2023/07/24 23:33:19;;;;;;;3.25;1.65;;;22.90;99.90;;;;;;10061341;28;20037;-68
2023/07/24 23:38:09;;;;;;;4.10;2.38;;;22.70;99.90;;;;;;10063904;28;20057;-69
2023/07/24 23:43:00;;;;;;;3.13;1.98;;;22.60;99.90;;;;;;10069505;28;20029;-68
2023/07/24 23:47:50;;;;;;;3.88;2.25;;;22.60;99.90;;;;;;10064214;28;20043;-68
2023/07/24 23:52:41;;;;;;;3.75;2.20;;;22.50;99.90;;;;;;10070287;28;20048;-69
2023/07/24 23:57:32;;;;;;;4.13;2.40;;;22.50;99.90;;;;;;10060841;28;20033;-69
